createdAt,value
2023-05-03T00:00:39.510Z,3.76
2023-05-03T00:01:39.542Z,3.75
2023-05-03T00:02:39.611Z,3.82
2023-05-03T00:03:39.424Z,3.85
2023-05-03T00:04:39.456Z,3.80
2023-05-03T00:05:39.454Z,3.72
2023-05-03T00:06:39.459Z,3.72
2023-05-03T00:07:39.501Z,3.70
2023-05-03T00:08:39.508Z,3.80
2023-05-03T00:09:39.476Z,3.67
2023-05-03T00:10:39.474Z,3.79
2023-05-03T00:11:39.327Z,3.86
2023-05-03T00:12:39.437Z,3.75
2023-05-03T00:13:39.418Z,3.82
2023-05-03T00:14:39.362Z,3.86
2023-05-03T00:15:39.454Z,3.96
2023-05-03T00:16:39.420Z,3.97
2023-05-03T00:17:39.473Z,4.00
2023-05-03T00:18:39.387Z,4.06
2023-05-03T00:19:39.362Z,4.08
2023-05-03T00:20:39.299Z,4.19
2023-05-03T00:21:39.373Z,4.18
2023-05-03T00:22:39.244Z,4.24
2023-05-03T00:23:39.233Z,4.32
2023-05-03T00:24:39.317Z,4.10
2023-05-03T00:25:39.223Z,4.01
2023-05-03T00:26:39.397Z,3.85
2023-05-03T00:27:39.326Z,3.68
2023-05-03T00:28:39.296Z,3.58
2023-05-03T00:29:39.348Z,3.44
2023-05-03T00:30:40.307Z,3.67
2023-05-03T00:31:39.403Z,3.44
2023-05-03T00:32:39.680Z,3.33
2023-05-03T00:33:39.236Z,3.15
2023-05-03T00:34:39.304Z,3.24
2023-05-03T00:35:39.248Z,3.28
2023-05-03T00:36:39.236Z,3.40
2023-05-03T00:37:39.306Z,3.42
2023-05-03T00:38:39.320Z,3.39
2023-05-03T00:39:39.262Z,3.39
2023-05-03T00:40:39.229Z,3.13
2023-05-03T00:41:39.198Z,3.02
2023-05-03T00:42:39.166Z,3.06
2023-05-03T00:43:39.149Z,3.10
2023-05-03T00:44:39.129Z,3.03
2023-05-03T00:45:39.169Z,2.92
2023-05-03T00:46:39.189Z,2.92
2023-05-03T00:47:39.264Z,2.95
2023-05-03T00:48:39.268Z,2.88
2023-05-03T00:49:39.157Z,2.91
2023-05-03T00:50:39.210Z,2.97
2023-05-03T00:51:39.143Z,2.89
2023-05-03T00:52:39.205Z,2.92
2023-05-03T00:53:39.128Z,2.94
2023-05-03T00:54:39.228Z,3.05
2023-05-03T00:55:39.114Z,3.15
2023-05-03T00:56:48.351Z,3.18
2023-05-03T00:57:41.115Z,3.09
2023-05-03T00:58:39.037Z,3.03
2023-05-03T00:59:39.082Z,3.00
2023-05-03T01:00:39.066Z,3.00
2023-05-03T01:01:39.096Z,3.03
2023-05-03T01:02:39.141Z,3.13
2023-05-03T01:03:39.117Z,3.13
2023-05-03T01:04:39.747Z,3.21
2023-05-03T01:05:39.125Z,3.07
2023-05-03T01:06:39.091Z,2.88
2023-05-03T01:07:39.050Z,2.84
2023-05-03T01:08:39.038Z,2.88
2023-05-03T01:09:39.012Z,2.97
2023-05-03T01:10:39.056Z,3.10
2023-05-03T01:11:38.992Z,3.02
2023-05-03T01:12:39.027Z,3.00
2023-05-03T01:13:39.019Z,2.79
2023-05-03T01:14:39.022Z,2.71
2023-05-03T01:15:39.051Z,2.63
2023-05-03T01:16:39.167Z,2.66
2023-05-03T01:17:39.066Z,2.67
2023-05-03T01:18:38.879Z,2.66
2023-05-03T01:19:39.085Z,2.67
2023-05-03T01:20:38.922Z,2.73
2023-05-03T01:21:38.871Z,2.74
2023-05-03T01:22:38.861Z,2.67
2023-05-03T01:23:38.915Z,2.94
2023-05-03T01:24:38.845Z,2.97
2023-05-03T01:25:38.939Z,3.05
2023-05-03T01:26:38.960Z,3.13
2023-05-03T01:27:38.924Z,3.15
2023-05-03T01:28:38.921Z,3.07
2023-05-03T01:29:38.909Z,3.06
2023-05-03T01:30:38.857Z,3.13
2023-05-03T01:31:38.916Z,3.18
2023-05-03T01:32:38.954Z,3.06
2023-05-03T01:33:39.874Z,2.97
2023-05-03T01:34:38.885Z,2.98
2023-05-03T01:35:38.839Z,2.92
2023-05-03T01:36:38.874Z,3.02
2023-05-03T01:37:39.108Z,2.82
2023-05-03T01:38:39.131Z,2.76
2023-05-03T01:39:38.758Z,2.76
2023-05-03T01:40:38.739Z,2.64
2023-05-03T01:41:38.828Z,2.73
2023-05-03T01:42:38.712Z,2.85
2023-05-03T01:43:38.742Z,2.88
2023-05-03T01:44:38.725Z,2.97
2023-05-03T01:45:38.817Z,2.92
2023-05-03T01:46:38.694Z,3.10
2023-05-03T01:47:38.825Z,3.09
2023-05-03T01:48:38.801Z,3.20
2023-05-03T01:49:38.734Z,3.15
2023-05-03T01:50:38.767Z,3.18
2023-05-03T01:51:38.761Z,3.10
2023-05-03T01:52:38.754Z,3.10
2023-05-03T01:53:38.736Z,3.02
2023-05-03T01:54:38.815Z,3.05
2023-05-03T01:55:38.801Z,2.89
2023-05-03T01:56:38.753Z,2.92
2023-05-03T01:57:38.662Z,2.98
2023-05-03T01:58:38.697Z,2.89
2023-05-03T01:59:38.724Z,2.82
2023-05-03T02:00:38.592Z,2.79
2023-05-03T02:01:38.641Z,2.71
2023-05-03T02:02:38.705Z,2.77
2023-05-03T02:03:38.570Z,2.85
2023-05-03T02:04:38.664Z,2.85
2023-05-03T02:05:38.776Z,2.73
2023-05-03T02:06:38.801Z,2.77
2023-05-03T02:07:38.734Z,2.85
2023-05-03T02:08:38.699Z,2.77
2023-05-03T02:09:38.654Z,2.64
2023-05-03T02:10:38.684Z,2.53
2023-05-03T02:11:38.559Z,2.52
2023-05-03T02:12:38.610Z,2.55
2023-05-03T02:13:38.616Z,2.38
2023-05-03T02:14:38.642Z,2.45
2023-05-03T02:15:38.640Z,2.26
2023-05-03T02:16:38.758Z,2.13
2023-05-03T02:17:38.710Z,2.08
2023-05-03T02:18:38.478Z,2.15
2023-05-03T02:19:38.455Z,2.04
2023-05-03T02:20:38.662Z,1.94
2023-05-03T02:21:38.582Z,1.73
2023-05-03T02:22:38.527Z,1.72
2023-05-03T02:23:38.563Z,1.69
2023-05-03T02:24:38.566Z,1.85
2023-05-03T02:25:38.539Z,1.85
2023-05-03T02:26:39.628Z,2.01
2023-05-03T02:27:38.508Z,2.09
2023-05-03T02:28:38.559Z,2.19
2023-05-03T02:29:38.550Z,2.12
2023-05-03T02:30:38.592Z,2.16
2023-05-03T02:31:38.460Z,2.08
2023-05-03T02:32:38.524Z,2.04
2023-05-03T02:33:38.503Z,2.16
2023-05-03T02:34:38.400Z,2.19
2023-05-03T02:35:38.481Z,2.22
2023-05-03T02:36:39.526Z,2.22
2023-05-03T02:37:38.835Z,2.16
2023-05-03T02:38:38.352Z,2.20
2023-05-03T02:39:38.471Z,2.20
2023-05-03T02:40:38.418Z,2.30
2023-05-03T02:41:38.426Z,2.33
2023-05-03T02:42:38.373Z,2.31
2023-05-03T02:43:38.432Z,2.37
2023-05-03T02:44:38.430Z,2.37
2023-05-03T02:45:38.431Z,2.45
2023-05-03T02:46:38.372Z,2.51
2023-05-03T02:47:38.485Z,2.52
2023-05-03T02:48:38.435Z,2.48
2023-05-03T02:49:38.406Z,2.44
2023-05-03T02:50:38.245Z,2.41
2023-05-03T02:51:38.264Z,2.33
2023-05-03T02:52:38.249Z,2.33
2023-05-03T02:53:38.616Z,2.33
2023-05-03T02:54:38.239Z,2.28
2023-05-03T02:55:38.546Z,2.10
2023-05-03T02:56:38.314Z,2.26
2023-05-03T02:57:39.419Z,2.23
2023-05-03T02:58:38.284Z,2.13
2023-05-03T02:59:38.402Z,2.23
2023-05-03T03:00:38.306Z,2.37
2023-05-03T03:01:38.340Z,2.20
2023-05-03T03:02:38.370Z,2.09
2023-05-03T03:03:38.453Z,2.09
2023-05-03T03:04:38.288Z,1.93
2023-05-03T03:05:38.251Z,1.85
2023-05-03T03:06:38.330Z,1.89
2023-05-03T03:07:38.329Z,1.80
2023-05-03T03:08:38.156Z,1.89
2023-05-03T03:09:38.167Z,1.99
2023-05-03T03:10:38.284Z,2.13
2023-05-03T05:43:43.654Z,4.00
2023-05-03T05:44:43.357Z,4.22
2023-05-03T05:45:43.374Z,4.28
2023-05-03T05:46:43.352Z,4.29
2023-05-03T05:47:43.320Z,4.50
2023-05-03T05:48:44.534Z,4.47
2023-05-03T05:49:44.500Z,4.58
2023-05-03T05:50:44.540Z,4.54
2023-05-03T05:51:44.509Z,4.61
2023-05-03T05:52:44.481Z,4.64
2023-05-03T05:53:44.506Z,4.91
2023-05-03T05:54:44.405Z,4.96
2023-05-03T05:55:44.358Z,5.22
2023-05-03T05:56:44.312Z,5.31
2023-05-03T05:57:44.314Z,5.41
2023-05-03T05:58:44.450Z,5.49
2023-05-03T05:59:44.526Z,5.52
2023-05-03T06:00:44.430Z,5.40
2023-05-03T06:01:44.386Z,5.57
2023-05-03T06:02:44.426Z,5.68
2023-05-03T06:03:44.460Z,5.82
2023-05-03T06:04:44.451Z,5.85
2023-05-03T06:05:44.443Z,6.00
2023-05-03T06:06:44.354Z,6.09
2023-05-03T06:07:44.341Z,6.11
2023-05-03T06:08:45.326Z,6.21
2023-05-03T06:09:44.340Z,6.30
2023-05-03T06:10:44.393Z,6.36
2023-05-03T06:11:44.366Z,6.46
2023-05-03T06:12:44.312Z,6.58
2023-05-03T06:13:44.225Z,6.47
2023-05-03T06:14:55.331Z,6.26
2023-05-03T06:15:46.233Z,6.21
2023-05-03T06:16:44.411Z,6.19
2023-05-03T06:17:44.226Z,6.44
2023-05-03T06:18:44.190Z,6.48
2023-05-03T06:19:45.153Z,6.26
2023-05-03T06:20:45.193Z,6.03
2023-05-03T06:21:44.250Z,6.03
2023-05-03T06:22:44.236Z,6.00
2023-05-03T06:23:44.251Z,6.03
2023-05-03T06:24:44.257Z,6.19
2023-05-03T06:25:44.237Z,6.41
2023-05-03T06:26:44.244Z,6.53
2023-05-03T06:27:44.268Z,6.56
2023-05-03T06:28:44.166Z,6.66
2023-05-03T06:29:44.204Z,6.89
2023-05-03T06:30:44.213Z,6.95
2023-05-03T06:31:44.296Z,6.97
2023-05-03T06:32:44.263Z,7.02
2023-05-03T06:33:44.189Z,6.98
2023-05-03T06:34:44.067Z,6.87
2023-05-03T06:35:44.044Z,6.62
2023-05-03T06:36:44.081Z,6.69
2023-05-03T06:37:44.085Z,6.65
2023-05-03T06:38:44.095Z,6.62
2023-05-03T06:39:44.015Z,6.69
2023-05-03T06:40:44.015Z,6.73
2023-05-03T06:41:44.011Z,6.86
2023-05-03T06:42:44.022Z,7.07
2023-05-03T06:43:44.095Z,7.12
2023-05-03T06:44:44.094Z,7.27
2023-05-03T06:45:44.084Z,7.31
2023-05-03T06:46:44.076Z,7.41
2023-05-03T06:47:44.026Z,7.55
2023-05-03T06:48:44.293Z,7.69
2023-05-03T06:49:44.012Z,7.81
2023-05-03T06:50:44.056Z,7.93
2023-05-03T06:51:44.037Z,8.00
2023-05-03T06:52:44.004Z,8.12
2023-05-03T06:53:44.034Z,8.25
2023-05-03T06:54:44.016Z,8.35
2023-05-03T06:55:44.021Z,8.51
2023-05-03T06:56:44.003Z,8.73
2023-05-03T06:57:43.966Z,8.81
2023-05-03T06:58:43.975Z,8.76
2023-05-03T06:59:43.944Z,8.86
2023-05-03T07:00:43.888Z,9.04
2023-05-03T07:01:43.892Z,9.13
2023-05-03T07:02:44.158Z,9.01
2023-05-03T07:03:44.065Z,9.09
2023-05-03T07:04:43.877Z,9.13
2023-05-03T07:05:43.874Z,9.12
2023-05-03T07:06:55.307Z,9.12
2023-05-03T07:07:45.804Z,9.35
2023-05-03T07:08:43.817Z,9.38
2023-05-03T07:09:44.210Z,9.46
2023-05-03T07:10:43.983Z,9.38
2023-05-03T07:11:43.803Z,9.40
2023-05-03T07:12:43.884Z,9.50
2023-05-03T07:13:43.875Z,9.58
2023-05-03T07:14:43.893Z,9.61
2023-05-03T07:15:43.883Z,9.67
2023-05-03T07:16:43.924Z,9.66
2023-05-03T07:17:43.860Z,9.79
2023-05-03T07:18:43.852Z,9.78
2023-05-03T07:19:43.845Z,9.89
2023-05-03T07:20:43.779Z,9.83
2023-05-03T07:21:43.896Z,9.76
2023-05-03T07:22:43.809Z,9.85
2023-05-03T07:23:43.812Z,9.60
2023-05-03T07:24:43.816Z,9.39
2023-05-03T07:25:43.739Z,9.35
2023-05-03T07:26:44.681Z,9.49
2023-05-03T07:27:44.975Z,9.43
2023-05-03T07:28:43.688Z,9.13
2023-05-03T07:29:43.642Z,9.09
2023-05-03T07:30:43.683Z,8.99
2023-05-03T07:31:43.672Z,9.06
2023-05-03T07:32:43.755Z,8.91
2023-05-03T07:33:43.743Z,9.20
2023-05-03T07:34:43.736Z,9.32
2023-05-03T07:35:43.670Z,9.58
2023-05-03T07:36:43.752Z,9.71
2023-05-03T07:37:43.744Z,9.64
2023-05-03T07:38:43.711Z,9.82
2023-05-03T07:39:43.886Z,9.96
2023-05-03T07:40:43.700Z,10.03
2023-05-03T07:41:43.682Z,9.99
2023-05-03T07:42:43.632Z,10.12
2023-05-03T07:43:43.735Z,10.24
2023-05-03T07:44:43.767Z,10.33
2023-05-03T07:45:43.703Z,10.43
2023-05-03T07:46:43.689Z,10.63
2023-05-03T07:47:43.581Z,10.59
2023-05-03T07:48:43.557Z,10.62
2023-05-03T07:49:43.577Z,10.46
2023-05-03T07:50:43.546Z,10.60
2023-05-03T07:51:43.598Z,10.71
2023-05-03T07:52:43.577Z,10.84
2023-05-03T07:53:44.073Z,10.74
2023-05-03T07:54:44.655Z,10.77
2023-05-03T07:55:43.557Z,10.77
2023-05-03T07:56:43.588Z,10.66
2023-05-03T07:57:43.569Z,10.73
2023-05-03T07:58:45.026Z,10.70
2023-05-03T07:59:44.584Z,10.78
2023-05-03T08:00:43.566Z,10.84
2023-05-03T08:01:43.537Z,10.74
2023-05-03T08:02:43.683Z,10.80
2023-05-03T08:03:43.925Z,10.92
2023-05-03T08:04:43.805Z,11.07
2023-05-03T08:05:43.449Z,10.98
2023-05-03T08:06:43.479Z,11.10
2023-05-03T08:07:43.549Z,11.13
2023-05-03T08:08:43.382Z,11.31
2023-05-03T08:09:43.396Z,11.27
2023-05-03T08:10:43.457Z,11.29
2023-05-03T08:11:44.357Z,11.21
2023-05-03T08:12:44.341Z,11.34
2023-05-03T08:13:43.398Z,11.35
2023-05-03T08:14:43.465Z,11.46
2023-05-03T08:15:43.520Z,11.61
2023-05-03T08:16:43.429Z,11.59
2023-05-03T08:17:43.546Z,11.67
2023-05-03T08:18:43.415Z,11.64
2023-05-03T08:19:43.443Z,11.70
2023-05-03T08:20:43.442Z,11.75
2023-05-03T08:21:43.448Z,11.83
2023-05-03T08:22:43.396Z,12.01
2023-05-03T08:23:43.422Z,12.11
2023-05-03T08:24:43.381Z,12.01
2023-05-03T08:25:43.351Z,12.08
2023-05-03T08:26:43.408Z,12.20
2023-05-03T08:27:43.332Z,11.96
2023-05-03T08:28:43.304Z,11.93
2023-05-03T08:29:43.233Z,12.26
2023-05-03T08:30:43.282Z,12.37
2023-05-03T08:31:43.349Z,12.39
2023-05-03T08:32:43.350Z,12.57
2023-05-03T08:33:43.174Z,12.66
2023-05-03T08:34:43.377Z,12.74
2023-05-03T08:35:43.295Z,12.51
2023-05-03T08:36:43.367Z,12.59
2023-05-03T08:37:43.308Z,12.42
2023-05-03T08:38:43.267Z,12.20
2023-05-03T08:39:43.291Z,12.34
2023-05-03T08:40:43.268Z,12.39
2023-05-03T08:41:43.244Z,12.38
2023-05-03T08:42:43.306Z,12.23
2023-05-03T08:43:43.377Z,11.93
2023-05-03T08:44:43.285Z,11.82
2023-05-03T08:45:43.267Z,11.80
2023-05-03T08:46:43.390Z,11.77
2023-05-03T08:47:44.135Z,11.75
2023-05-03T08:48:43.246Z,11.90
2023-05-03T08:49:43.388Z,12.09
2023-05-03T08:50:43.264Z,12.24
2023-05-03T08:51:43.370Z,12.24
2023-05-03T08:52:43.274Z,12.12
2023-05-03T08:53:43.650Z,12.09
2023-05-03T08:54:44.733Z,12.20
2023-05-03T08:55:43.189Z,12.23
2023-05-03T08:56:43.195Z,12.37
2023-05-03T08:57:43.280Z,12.41
2023-05-03T08:58:43.221Z,12.48
2023-05-03T08:59:43.222Z,12.62
2023-05-03T09:00:43.199Z,12.64
2023-05-03T09:01:43.287Z,12.81
2023-05-03T09:02:43.475Z,12.87
2023-05-03T09:03:43.223Z,12.79
2023-05-03T09:04:43.182Z,12.89
2023-05-03T09:05:43.199Z,12.87
2023-05-03T09:06:43.037Z,12.88
2023-05-03T09:07:43.103Z,12.92
2023-05-03T09:08:43.034Z,12.82
2023-05-03T09:09:46.322Z,12.88
2023-05-03T09:10:44.018Z,13.04
2023-05-03T09:11:43.012Z,13.03
2023-05-03T09:12:42.938Z,13.09
2023-05-03T09:13:42.940Z,13.25
2023-05-03T09:14:42.929Z,13.22
2023-05-03T09:15:42.983Z,13.30
2023-05-03T09:16:43.107Z,13.29
2023-05-03T09:17:42.988Z,13.20
2023-05-03T09:18:43.055Z,13.25
2023-05-03T09:19:42.949Z,12.64
2023-05-03T09:20:43.120Z,12.79
2023-05-03T09:21:42.966Z,12.95
2023-05-03T09:22:42.932Z,13.07
2023-05-03T09:23:43.007Z,13.21
2023-05-03T09:24:42.899Z,13.36
2023-05-03T09:25:42.961Z,13.44
2023-05-03T09:26:42.957Z,13.47
2023-05-03T09:27:42.907Z,13.37
2023-05-03T09:28:42.948Z,13.43
2023-05-03T09:29:42.940Z,13.46
2023-05-03T09:30:42.838Z,13.59
2023-05-03T09:31:42.927Z,13.58
2023-05-03T09:32:42.863Z,13.41
2023-05-03T09:33:42.845Z,13.49
2023-05-03T09:34:43.963Z,13.41
2023-05-03T09:35:42.846Z,13.62
2023-05-03T09:36:44.556Z,13.61
2023-05-03T09:37:42.895Z,13.49
2023-05-03T09:38:42.857Z,13.52
2023-05-03T09:39:42.904Z,13.67
2023-05-03T09:40:42.817Z,13.47
2023-05-03T09:41:42.824Z,13.49
2023-05-03T09:42:42.919Z,13.56
2023-05-03T09:43:42.841Z,13.76
2023-05-03T09:44:42.836Z,13.92
2023-05-03T09:45:42.792Z,13.77
2023-05-03T09:46:42.785Z,13.94
2023-05-03T09:47:42.823Z,13.99
2023-05-03T09:48:42.803Z,14.09
2023-05-03T09:49:42.763Z,14.16
2023-05-03T09:50:42.717Z,14.16
2023-05-03T09:51:42.756Z,14.24
2023-05-03T09:52:42.664Z,14.20
2023-05-03T09:53:43.146Z,14.14
2023-05-03T09:54:42.771Z,14.10
2023-05-03T09:55:42.701Z,13.95
2023-05-03T09:56:42.740Z,13.73
2023-05-03T09:57:42.718Z,13.61
2023-05-03T09:58:43.151Z,13.76
2023-05-03T09:59:42.743Z,13.89
2023-05-03T10:00:42.697Z,13.99
2023-05-03T10:01:42.738Z,14.10
2023-05-03T10:02:42.686Z,14.17
2023-05-03T10:03:42.751Z,14.29
2023-05-03T10:04:42.800Z,14.04
2023-05-03T10:05:42.720Z,13.70
2023-05-03T10:06:42.639Z,13.24
2023-05-03T10:07:42.648Z,13.38
2023-05-03T10:08:42.710Z,13.54
2023-05-03T10:09:42.670Z,13.84
2023-05-03T10:10:42.588Z,13.95
2023-05-03T10:11:42.511Z,14.07
2023-05-03T10:12:42.518Z,14.20
2023-05-03T10:13:42.582Z,14.19
2023-05-03T10:14:42.553Z,14.27
2023-05-03T10:15:42.693Z,14.07
2023-05-03T10:16:42.559Z,14.27
2023-05-03T10:17:48.498Z,14.25
2023-05-03T10:18:44.568Z,14.19
2023-05-03T10:19:42.468Z,14.28
2023-05-03T10:20:42.848Z,14.34
2023-05-03T10:21:42.703Z,14.13
2023-05-03T10:22:42.745Z,13.65
2023-05-03T10:23:42.555Z,13.52
2023-05-03T10:24:42.502Z,13.54
2023-05-03T10:25:42.560Z,13.74
2023-05-03T10:26:42.571Z,13.65
2023-05-03T10:27:42.550Z,13.74
2023-05-03T10:28:42.507Z,13.89
2023-05-03T10:29:42.557Z,14.06
2023-05-03T10:30:42.515Z,13.99
2023-05-03T10:31:42.571Z,14.02
2023-05-03T10:32:42.443Z,14.12
2023-05-03T10:33:42.396Z,14.20
2023-05-03T10:34:43.432Z,14.16
2023-05-03T10:35:42.549Z,13.71
2023-05-03T10:36:49.489Z,13.98
2023-05-03T10:37:44.431Z,13.95
2023-05-03T10:38:42.673Z,14.04
2023-05-03T10:39:42.457Z,14.21
2023-05-03T10:40:42.732Z,14.21
2023-05-03T10:41:42.581Z,14.17
2023-05-03T10:42:42.684Z,14.34
2023-05-03T10:43:42.482Z,14.49
2023-05-03T10:44:42.528Z,14.49
2023-05-03T10:45:42.455Z,14.50
2023-05-03T10:46:42.535Z,14.61
2023-05-03T10:47:42.449Z,14.62
2023-05-03T10:48:42.453Z,14.54
2023-05-03T10:49:42.354Z,14.43
2023-05-03T10:50:43.071Z,14.47
2023-05-03T10:51:42.371Z,14.52
2023-05-03T10:52:42.371Z,14.49
2023-05-03T10:53:42.421Z,14.60
2023-05-03T10:54:42.270Z,14.78
2023-05-03T10:55:42.285Z,14.62
2023-05-03T10:56:42.234Z,14.53
2023-05-03T10:57:42.467Z,14.52
2023-05-03T10:58:42.277Z,14.81
2023-05-03T10:59:42.384Z,14.74
2023-05-03T11:00:42.179Z,14.74
2023-05-03T11:01:42.283Z,14.74
2023-05-03T11:02:42.404Z,14.99
2023-05-03T11:03:42.352Z,14.94
2023-05-03T11:04:42.597Z,14.91
2023-05-03T11:05:42.329Z,14.93
2023-05-03T11:06:42.289Z,14.90
2023-05-03T11:07:42.341Z,14.88
2023-05-03T11:08:42.276Z,15.02
2023-05-03T11:09:42.241Z,15.08
2023-05-03T11:10:42.256Z,15.13
2023-05-03T11:11:42.172Z,15.19
2023-05-03T11:12:42.346Z,15.21
2023-05-03T11:13:42.256Z,15.13
2023-05-03T11:14:42.197Z,15.30
2023-05-03T11:15:42.286Z,15.31
2023-05-03T11:16:42.307Z,14.95
2023-05-03T11:17:42.270Z,14.71
2023-05-03T11:18:42.161Z,14.47
2023-05-03T11:19:42.142Z,14.20
2023-05-03T11:20:42.127Z,14.10
2023-05-03T11:21:43.236Z,14.21
2023-05-03T11:22:42.081Z,14.27
2023-05-03T11:23:42.032Z,14.43
2023-05-03T11:24:42.007Z,14.62
2023-05-03T11:25:42.102Z,14.71
2023-05-03T11:26:41.992Z,14.84
2023-05-03T11:27:42.025Z,14.98
2023-05-03T11:28:41.980Z,15.06
2023-05-03T11:29:41.960Z,15.28
2023-05-03T11:30:41.952Z,15.46
2023-05-03T11:31:42.188Z,15.67
2023-05-03T11:32:42.120Z,15.70
2023-05-03T11:33:42.010Z,15.64
2023-05-03T11:34:42.127Z,15.64
2023-05-03T11:35:42.090Z,15.63
2023-05-03T11:36:41.994Z,15.78
2023-05-03T11:37:42.014Z,15.67
2023-05-03T11:38:41.970Z,15.38
2023-05-03T11:39:43.019Z,15.38
2023-05-03T11:40:42.004Z,15.31
2023-05-03T11:41:42.129Z,15.11
2023-05-03T11:42:41.962Z,14.99
2023-05-03T11:43:41.990Z,14.98
2023-05-03T11:44:41.958Z,14.74
2023-05-03T11:45:42.023Z,14.69
2023-05-03T11:46:41.905Z,14.91
2023-05-03T11:47:41.962Z,15.02
2023-05-03T11:48:41.864Z,15.03
2023-05-03T11:49:41.813Z,15.12
2023-05-03T11:50:41.904Z,15.13
2023-05-03T11:51:41.844Z,15.01
2023-05-03T11:52:41.806Z,14.99
2023-05-03T11:53:41.956Z,15.03
2023-05-03T11:54:43.102Z,15.05
2023-05-03T11:56:14.154Z,15.03
2023-05-03T11:56:41.797Z,15.19
2023-05-03T11:57:41.905Z,15.30
2023-05-03T11:58:41.907Z,15.51
2023-05-03T11:59:42.197Z,15.60
2023-05-03T12:00:41.869Z,15.82
2023-05-03T12:01:41.870Z,16.07
2023-05-03T12:02:42.008Z,16.18
2023-05-03T12:03:42.176Z,16.30
2023-05-03T12:04:42.672Z,16.45
2023-05-03T12:05:42.549Z,16.48
2023-05-03T12:06:43.731Z,16.70
2023-05-03T12:07:42.298Z,16.86
2023-05-03T12:08:43.895Z,17.03
2023-05-03T12:09:45.084Z,16.89
2023-05-03T12:10:43.184Z,16.53
2023-05-03T12:11:43.552Z,16.63
2023-05-03T12:12:46.448Z,16.73
2023-05-03T12:13:44.443Z,16.75
2023-05-03T12:14:42.044Z,16.86
2023-05-03T12:15:43.744Z,17.03
2023-05-03T12:16:41.877Z,17.07
2023-05-03T12:17:44.934Z,17.35
2023-05-03T12:18:42.947Z,17.32
2023-05-03T12:19:43.792Z,17.41
2023-05-03T12:21:43.218Z,17.36
2023-05-03T12:22:43.845Z,17.00
2023-05-03T12:23:41.749Z,16.99
2023-05-03T12:24:44.844Z,16.81
2023-05-03T12:25:44.379Z,16.71
2023-05-03T12:26:42.677Z,16.55
2023-05-03T12:27:41.742Z,16.53
2023-05-03T12:28:41.782Z,16.67
2023-05-03T12:29:42.064Z,16.81
2023-05-03T12:30:41.735Z,16.67
2023-05-03T12:31:43.937Z,16.78
2023-05-03T12:32:44.237Z,16.81
2023-05-03T12:33:43.430Z,17.07
2023-05-03T12:34:42.954Z,16.95
2023-05-03T12:35:41.813Z,16.95
2023-05-03T12:36:43.625Z,16.96
2023-05-03T12:37:44.801Z,17.18
2023-05-03T12:38:43.721Z,17.54
2023-05-03T12:39:45.730Z,17.69
2023-05-03T12:40:42.505Z,17.74
2023-05-03T12:42:06.433Z,17.97
2023-05-03T12:42:43.660Z,18.12
2023-05-03T12:43:43.667Z,18.29
2023-05-03T12:44:43.474Z,17.79
2023-05-03T12:45:46.495Z,17.29
2023-05-03T12:46:45.244Z,16.73
2023-05-03T12:48:46.085Z,17.07
2023-05-03T12:49:45.757Z,17.00
2023-05-03T12:50:45.275Z,17.04
2023-05-03T12:51:42.939Z,17.04
2023-05-03T12:53:46.627Z,17.55
2023-05-03T12:54:42.408Z,17.87
2023-05-03T12:55:44.424Z,18.34
2023-05-03T12:56:47.554Z,18.37
2023-05-03T12:57:45.586Z,18.61
2023-05-03T12:58:56.735Z,18.77
2023-05-03T12:59:43.826Z,19.05
2023-05-03T13:00:53.648Z,18.87
2023-05-03T13:03:19.564Z,19.35
2023-05-03T13:03:45.558Z,20.35
2023-05-03T13:04:57.890Z,21.63
2023-05-03T13:05:43.681Z,22.35
2023-05-03T13:06:43.287Z,22.31
2023-05-03T13:07:43.356Z,22.25
2023-05-03T13:08:48.941Z,21.91
2023-05-03T13:10:43.522Z,21.29
2023-05-03T13:11:41.400Z,21.24
2023-05-03T13:12:41.507Z,21.14
2023-05-03T13:13:41.297Z,21.16
2023-05-03T13:14:41.620Z,20.98
2023-05-03T13:15:41.281Z,20.69
2023-05-03T13:16:41.376Z,20.42
2023-05-03T13:17:41.344Z,20.54
2023-05-03T13:18:41.298Z,20.72
2023-05-03T13:19:41.668Z,20.50
2023-05-03T13:20:41.365Z,19.69
2023-05-03T13:21:41.196Z,19.91
2023-05-03T13:22:41.123Z,20.47
2023-05-03T13:23:41.128Z,20.61
2023-05-03T13:24:41.126Z,21.21
2023-05-03T13:25:41.196Z,21.78
2023-05-03T13:26:41.122Z,21.74
2023-05-03T13:27:41.158Z,21.83
2023-05-03T13:28:41.201Z,21.95
2023-05-03T13:29:41.088Z,22.38
2023-05-03T13:30:41.278Z,22.90
2023-05-03T13:31:41.147Z,23.23
2023-05-03T13:32:41.167Z,23.39
2023-05-03T13:33:41.146Z,23.64
2023-05-03T13:34:41.158Z,23.83
2023-05-03T13:35:41.154Z,24.04
2023-05-03T13:36:41.187Z,24.31
2023-05-03T13:37:41.652Z,24.52
2023-05-03T13:39:13.127Z,24.57
2023-05-03T13:40:13.358Z,25.12
2023-05-03T13:40:41.475Z,25.15
2023-05-03T13:41:41.231Z,25.43
2023-05-03T13:42:41.140Z,25.52
2023-05-03T13:43:41.175Z,25.93
2023-05-03T13:44:41.580Z,26.43
2023-05-03T13:45:41.500Z,26.62
2023-05-03T13:46:41.517Z,26.25
2023-05-03T13:48:18.066Z,25.69
2023-05-03T13:49:07.577Z,25.05
2023-05-03T13:49:41.024Z,25.12
2023-05-03T13:50:41.391Z,25.10
2023-05-03T13:51:41.115Z,25.44
2023-05-03T13:52:41.231Z,25.84
2023-05-03T13:53:41.377Z,26.25
2023-05-03T13:54:41.569Z,26.52
2023-05-03T13:55:41.227Z,26.54
2023-05-03T13:56:41.541Z,26.55
2023-05-03T13:57:41.481Z,26.74
2023-05-03T13:58:41.620Z,26.98
2023-05-03T13:59:41.371Z,27.16
2023-05-03T14:00:40.923Z,27.57
2023-05-03T14:02:12.916Z,27.82
2023-05-03T14:02:41.020Z,27.39
2023-05-03T14:03:41.076Z,26.92
2023-05-03T14:04:41.891Z,27.04
2023-05-03T14:05:41.017Z,27.62
2023-05-03T14:06:41.821Z,28.09
2023-05-03T14:07:41.038Z,28.25
2023-05-03T14:08:40.988Z,28.01
2023-05-03T14:09:42.171Z,27.74
2023-05-03T14:10:40.975Z,27.39
2023-05-03T14:11:40.784Z,27.33
2023-05-03T14:12:41.110Z,27.50
2023-05-03T14:13:55.612Z,27.48
2023-05-03T14:14:43.087Z,27.73
2023-05-03T14:15:41.129Z,28.22
2023-05-03T14:16:42.182Z,28.84
2023-05-03T14:17:41.977Z,28.93
2023-05-03T14:18:41.346Z,29.13
2023-05-03T14:19:40.972Z,28.93
2023-05-03T14:20:41.184Z,28.73
2023-05-03T14:21:40.955Z,27.59
2023-05-03T14:22:41.179Z,25.53
2023-05-03T14:23:40.858Z,25.00
2023-05-03T14:24:40.795Z,25.34
2023-05-03T14:25:41.287Z,24.98
2023-05-03T14:26:40.919Z,25.82
2023-05-03T14:27:41.463Z,25.65
2023-05-03T14:28:41.198Z,25.68
2023-05-03T14:29:41.419Z,25.68
2023-05-03T14:30:41.286Z,25.09
2023-05-03T14:31:41.792Z,24.14
2023-05-03T14:32:41.201Z,24.91
2023-05-03T14:33:40.935Z,25.68
2023-05-03T14:34:40.712Z,26.04
2023-05-03T14:35:41.082Z,26.04
2023-05-03T14:36:41.527Z,26.39
2023-05-03T14:37:40.924Z,26.74
2023-05-03T14:38:40.711Z,27.05
2023-05-03T14:39:41.109Z,27.59
2023-05-03T14:40:41.085Z,27.94
2023-05-03T14:41:45.567Z,27.92
2023-05-03T14:42:42.236Z,28.33
2023-05-03T14:43:41.377Z,28.84
2023-05-03T14:44:40.894Z,28.95
2023-05-03T14:45:40.910Z,29.35
2023-05-03T14:46:40.766Z,29.31
2023-05-03T14:47:40.988Z,29.68
2023-05-03T14:48:40.975Z,29.22
2023-05-03T14:49:40.712Z,29.86
2023-05-03T14:50:40.706Z,29.43
2023-05-03T14:51:42.379Z,29.38
2023-05-03T14:52:40.945Z,29.10
2023-05-03T14:53:40.861Z,27.99
2023-05-03T14:54:41.636Z,27.88
2023-05-03T14:55:41.133Z,28.26
2023-05-03T14:56:40.697Z,28.63
2023-05-03T14:57:40.892Z,27.88
2023-05-03T14:58:40.610Z,27.86
2023-05-03T14:59:40.753Z,26.89
2023-05-03T15:00:40.761Z,26.83
2023-05-03T15:01:40.635Z,26.46
2023-05-03T15:02:40.944Z,26.83
2023-05-03T15:03:40.779Z,27.23
2023-05-03T15:04:40.501Z,26.84
2023-05-03T15:05:40.509Z,26.49
2023-05-03T15:06:40.847Z,26.86
2023-05-03T15:07:40.459Z,27.66
2023-05-03T15:08:40.629Z,28.22
2023-05-03T15:09:40.484Z,28.77
2023-05-03T15:10:40.470Z,28.93
2023-05-03T15:11:40.403Z,29.45
2023-05-03T15:12:44.773Z,28.77
2023-05-03T15:13:41.506Z,28.29
2023-05-03T15:14:40.489Z,28.75
2023-05-03T15:15:40.506Z,28.59
2023-05-03T15:16:40.608Z,28.84
2023-05-03T15:17:40.463Z,28.81
2023-05-03T15:18:40.489Z,28.85
2023-05-03T15:19:40.602Z,28.80
2023-05-03T15:20:40.478Z,28.38
2023-05-03T15:21:40.448Z,28.26
2023-05-03T15:22:40.528Z,28.56
2023-05-03T15:23:40.416Z,29.23
2023-05-03T15:24:41.142Z,29.55
2023-05-03T15:25:40.390Z,29.60
2023-05-03T15:26:40.630Z,29.62
2023-05-03T15:27:40.546Z,30.07
2023-05-03T15:28:40.535Z,29.81
2023-05-03T15:29:40.571Z,30.03
2023-05-03T15:30:41.180Z,30.33
2023-05-03T15:31:40.584Z,30.47
2023-05-03T15:32:40.585Z,30.46
2023-05-03T15:33:40.754Z,30.14
2023-05-03T15:34:40.405Z,29.99
2023-05-03T15:35:41.531Z,30.18
2023-05-03T15:36:40.426Z,29.92
2023-05-03T15:37:41.357Z,29.74
2023-05-03T15:38:40.405Z,29.31
2023-05-03T15:39:40.553Z,29.59